Providence, Rhode Island
Current Conditions -  °F | °C
As of 4:51 AM on Friday 24 Oct 2014 (Local Time) from KPVD Reporting Station
Overcast Overcast  
Wind Chill: 11°   Ceiling: 1700
Heat Index: 11°   Visibility: 10mi
Dew Point:   Wind: 13mph
Humidity: 86%   Direction: 340°NNW
Pressure: 29.67"   Gusts: NA
Location:  41.82°N, 71.41°W
Report Text: KPVD 240851Z 34011KT 10SM BKN017 OVC021 11/08 A2967 RMK AO2 SLP048 60000 T01060083 53003
Loading
Personal Weather Stations






























Interactive Weather Map
Tropical Storm Tracking
New forecast layout! Learn more

10-Day Weather Forecast

Advertisements
Track Severe Weather on mobile